Brendan Turecamo — WDB9024 — position and weather

sailwx.info

Track history (hours):
 
Tides and Currents Weather Stations Pressure Air Temp Water Temp Dewpoint Dewpoint Depression Visibility Wind Speed Wind Dir Waves Ship Positions

Brendan Turecamo

Owner: Moran Towing Corporation, New Canaan, CT. More information available from US FCC via Universal Licensing System and Coast Guard Vessel Documentation Center.

Last reported at 2018-Feb-24 03:58 UTC. Time now 2018-Feb-24 04:03 UTC.
Position N 40°38' W 074°08'.

Length 33 m; draft 4.7 m.

Type: Tug. MMSI: 366946760.

Date/timePositionNaut miles runAvg speedWind from/ knotsBaromVisibWave heightAir tempDewpointWater temp
2018-Feb-24 03:58N 40°38' W 074°08'0 0.0
2018-Feb-24 03:25N 40°38' W 074°08'0 0.0
2018-Feb-24 02:55N 40°38' W 074°08'0 0.0
2018-Feb-24 02:28N 40°38' W 074°08'0 0.0
2018-Feb-24 01:49N 40°38' W 074°08'0 0.0
2018-Feb-24 01:28N 40°38' W 074°08'0 0.0
2018-Feb-24 00:55N 40°38' W 074°08'0 0.0
2018-Feb-24 00:25N 40°38' W 074°08'0 0.0
2018-Feb-23 23:49N 40°38' W 074°08'0 0.0
2018-Feb-23 22:55N 40°38' W 074°08'0 0.0
2018-Feb-23 22:25N 40°38' W 074°08'0 0.0
2018-Feb-23 21:55N 40°38' W 074°08'0 0.0
2018-Feb-23 21:25N 40°38' W 074°08'0 0.0
2018-Feb-23 20:58N 40°38' W 074°08'0 0.0
2018-Feb-23 20:28N 40°38' W 074°08'0 0.0
2018-Feb-23 19:58N 40°38' W 074°08'0 0.0
2018-Feb-23 19:22N 40°38' W 074°08'0 0.0
2018-Feb-23 18:55N 40°38' W 074°08'0 0.0
2018-Feb-23 18:25N 40°38' W 074°08'0 0.0
2018-Feb-23 18:00N 40°38' W 074°08'3 5.9
2018-Feb-23 17:30N 40°39' W 074°04'4 6.6
2018-Feb-23 16:58N 40°36' W 074°01'0 0.0
2018-Feb-23 16:28N 40°36' W 074°01'0 0.0
2018-Feb-23 15:58N 40°36' W 074°01'0 0.0
2018-Feb-23 15:22N 40°36' W 074°01'0 0.0
2018-Feb-23 14:58N 40°36' W 074°01'0 0.0
2018-Feb-23 14:28N 40°36' W 074°01'0 0.0
2018-Feb-23 13:58N 40°36' W 074°01'0 0.0
2018-Feb-23 13:28N 40°36' W 074°01'0 0.0
2018-Feb-23 12:58N 40°36' W 074°01'0 0.0
2018-Feb-23 12:28N 40°36' W 074°01'0 0.0
2018-Feb-23 11:58N 40°36' W 074°01'0 0.1
2018-Feb-23 11:30N 40°36' W 074°01'3 6.0
2018-Feb-23 11:00N 40°38' W 074°04'3 4.0
2018-Feb-23 10:14N 40°38' W 074°08'0 0.0
2018-Feb-23 08:47N 40°38' W 074°08'0 0.0
2018-Feb-23 08:29N 40°38' W 074°08'0 0.0
2018-Feb-23 07:53N 40°38' W 074°08'0 0.0
2018-Feb-23 07:29N 40°38' W 074°08'0 0.0
2018-Feb-23 06:59N 40°38' W 074°08'0 0.0
2018-Feb-23 06:29N 40°38' W 074°08'0 0.3
2018-Feb-23 05:58N 40°38' W 074°08'0 0.3
2018-Feb-23 05:30N 40°38' W 074°08'0 0.0
2018-Feb-23 05:00N 40°38' W 074°08'0 0.0
2018-Feb-23 04:30N 40°38' W 074°08'0 0.0
2018-Feb-23 04:00N 40°38' W 074°08'0 0.0
2018-Feb-23 03:30N 40°38' W 074°08'0 0.0
2018-Feb-23 03:00N 40°38' W 074°08'0 0.0
2018-Feb-23 02:30N 40°38' W 074°08'0 0.8
2018-Feb-23 01:59N 40°39' W 074°08'3 6.7
2018-Feb-23 01:29N 40°42' W 074°09'1 1.1
2018-Feb-23 01:00N 40°42' W 074°08'2 4.1
2018-Feb-23 00:30N 40°39' W 074°09'2 3.8
2018-Feb-23 00:00N 40°39' W 074°06'3 6.4
2018-Feb-22 23:30N 40°40' W 074°03'2 3.2
2018-Feb-22 23:00N 40°41' W 074°01'2 4.5
2018-Feb-22 22:30N 40°40' W 074°03'4 1.7
2018-Feb-22 20:13N 40°38' W 074°08'0 0.0
2018-Feb-22 19:49N 40°38' W 074°08'0 0.0
2018-Feb-22 19:19N 40°38' W 074°08'0 0.0
2018-Feb-22 18:55N 40°38' W 074°08'2 4.7
2018-Feb-22 18:29N 40°40' W 074°08'2 3.1
2018-Feb-22 18:00N 40°42' W 074°09'1 2.7
2018-Feb-22 17:30N 40°41' W 074°08'2 4.2
2018-Feb-22 17:00N 40°39' W 074°07'4 7.3
2018-Feb-22 16:30N 40°40' W 074°03'2 3.4
2018-Feb-22 16:00N 40°41' W 074°01'3 5.1
2018-Feb-22 15:31N 40°40' W 074°03'4 6.5
2018-Feb-22 14:57N 40°38' W 074°08'0 0.0
2018-Feb-22 14:27N 40°38' W 074°08'0 0.0
2018-Feb-22 13:57N 40°38' W 074°08'0 0.0
2018-Feb-22 13:03N 40°38' W 074°08'0 0.0
2018-Feb-22 12:41N 40°38' W 074°08'0 0.7
2018-Feb-22 12:30N 40°39' W 074°08'4 8.1
2018-Feb-22 12:00N 40°37' W 074°03'4 9.0
2018-Feb-22 11:30N 40°33' W 074°01'5 9.5
2018-Feb-22 10:59N 40°30' W 073°56'4 8.5
2018-Feb-22 10:30N 40°32' W 074°01'714.1
2018-Feb-22 10:00N 40°38' W 074°04'4 7.4
2018-Feb-22 09:30N 40°39' W 074°09'2 3.9
2018-Feb-22 08:59N 40°41' W 074°08'0 0.1
2018-Feb-22 08:30N 40°41' W 074°08'2 4.0
2018-Feb-22 08:00N 40°39' W 074°09'1 1.0
2018-Feb-22 07:27N 40°38' W 074°08'0 0.0
2018-Feb-22 06:45N 40°38' W 074°08'0 0.0
2018-Feb-22 06:21N 40°38' W 074°08'0 0.0
2018-Feb-22 05:57N 40°38' W 074°08'0 0.0
2018-Feb-22 05:27N 40°38' W 074°08'0 0.0
2018-Feb-22 04:57N 40°38' W 074°08'2 4.0
2018-Feb-22 04:30N 40°39' W 074°06'0 0.2
2018-Feb-22 04:00N 40°39' W 074°05'1 2.6
2018-Feb-22 03:30N 40°40' W 074°04'0 0.0
2018-Feb-22 03:01N 40°40' W 074°04'1 1.5
2018-Feb-22 02:30N 40°40' W 074°05'0 0.4
2018-Feb-22 02:01N 40°40' W 074°05'2 4.5
2018-Feb-22 01:30N 40°39' W 074°03'2 3.7
2018-Feb-22 01:01N 40°40' W 074°05'0 0.8
2018-Feb-22 00:30N 40°40' W 074°04'3 5.9
2018-Feb-22 00:00N 40°41' W 074°01'2 4.3
2018-Feb-21 23:30N 40°40' W 074°03'3 6.6
2018-Feb-21 23:00N 40°39' W 074°07'3 6.3
2018-Feb-21 22:29N 40°42' W 074°09'0 0.6
2018-Feb-21 22:00N 40°42' W 074°08'3 5.6
2018-Feb-21 21:28N 40°39' W 074°07'1 1.7
2018-Feb-21 21:00N 40°39' W 074°08'1 2.9
2018-Feb-21 20:30N 40°40' W 074°08'0 0.3
2018-Feb-21 19:59N 40°40' W 074°09'1 3.1
2018-Feb-21 19:30N 40°39' W 074°09'1 1.4
2018-Feb-21 19:00N 40°38' W 074°08'0 0.0
2018-Feb-21 18:30N 40°38' W 074°08'0 0.0
2018-Feb-21 17:05N 40°38' W 074°08'0 0.0
2018-Feb-21 16:41N 40°38' W 074°08'0 0.0
2018-Feb-21 16:28N 40°38' W 074°08'3 6.2
2018-Feb-21 16:00N 40°41' W 074°08'0 0.1
2018-Feb-21 15:30N 40°41' W 074°08'1 1.7
2018-Feb-21 15:00N 40°40' W 074°08'2 3.6
2018-Feb-21 14:29N 40°39' W 074°07'3 6.6
2018-Feb-21 14:00N 40°38' W 074°03'3 5.7
2018-Feb-21 13:30N 40°39' W 074°07'1 0.6
2018-Feb-21 11:51N 40°38' W 074°08'3 7.9
2018-Feb-21 11:30N 40°39' W 074°04'4 7.7
2018-Feb-21 11:01N 40°42' W 074°00'1 1.1
2018-Feb-21 10:30N 40°41' W 074°01'0 0.3
2018-Feb-21 10:01N 40°41' W 074°01'0 0.7
2018-Feb-21 09:30N 40°41' W 074°00'0 0.0
2018-Feb-21 09:00N 40°41' W 074°00'0 0.0
2018-Feb-21 08:30N 40°41' W 074°00'0 0.6
2018-Feb-21 08:00N 40°41' W 074°01'3 6.1
2018-Feb-21 07:30N 40°40' W 074°04'3 5.8
2018-Feb-21 07:00N 40°38' W 074°08'0 0.0
2018-Feb-21 06:29N 40°38' W 074°08'0 0.0
2018-Feb-21 05:59N 40°38' W 074°08'0 0.0
2018-Feb-21 05:29N 40°38' W 074°08'0 0.0
2018-Feb-21 04:59N 40°38' W 074°08'0 0.0
2018-Feb-21 04:29N 40°38' W 074°08'0 0.0
2018-Feb-21 03:59N 40°38' W 074°08'0 0.0
2018-Feb-21 03:29N 40°38' W 074°08'0 0.0
2018-Feb-21 02:59N 40°38' W 074°08'1 2.3
2018-Feb-21 02:30N 40°39' W 074°09'3 0.2
2018-Feb-20 12:07N 40°36' W 074°12'0 0.0
2018-Feb-20 11:43N 40°36' W 074°12'0 0.0
2018-Feb-20 11:25N 40°36' W 074°12'0 0.0
2018-Feb-20 11:00N 40°36' W 074°12'1 1.0
2018-Feb-20 10:27N 40°37' W 074°12'4 7.8
2018-Feb-20 09:59N 40°39' W 074°08'0 0.8
2018-Feb-20 09:30N 40°38' W 074°08'0 0.0
2018-Feb-20 09:00N 40°38' W 074°08'0 0.0
2018-Feb-20 08:30N 40°38' W 074°08'0 0.0
2018-Feb-20 08:00N 40°38' W 074°08'0 0.0
2018-Feb-20 07:30N 40°38' W 074°08'0 0.0
2018-Feb-20 07:00N 40°38' W 074°08'0 0.0
2018-Feb-20 05:30N 40°38' W 074°08'0 0.0
2018-Feb-20 05:00N 40°38' W 074°08'0 0.0
2018-Feb-20 04:30N 40°38' W 074°08'0 0.0
2018-Feb-20 04:00N 40°38' W 074°08'0 0.0
2018-Feb-20 03:30N 40°38' W 074°08'0 0.0
2018-Feb-20 03:00N 40°38' W 074°08'0 0.0
2018-Feb-20 02:30N 40°38' W 074°08'0 0.0
2018-Feb-20 02:00N 40°38' W 074°08'0 0.0
2018-Feb-20 01:18N 40°38' W 074°08'0 0.0
2018-Feb-20 01:00N 40°38' W 074°08'0 0.6
2018-Feb-20 00:29N 40°39' W 074°08'1 3.0
2018-Feb-20 00:00N 40°40' W 074°09'0 0.9
2018-Feb-19 23:30N 40°39' W 074°09'2 3.0
2018-Feb-19 22:57N 40°39' W 074°07'2 5.6
2018-Feb-19 22:30N 40°39' W 074°03'2 3.4
2018-Feb-19 22:00N 40°37' W 074°03'4 8.6
2018-Feb-19 21:30N 40°39' W 074°08'2 3.6
2018-Feb-19 21:00N 40°40' W 074°08'1 1.9
2018-Feb-19 20:30N 40°41' W 074°09'0 0.2
2018-Feb-19 20:00N 40°41' W 074°09'2 3.4
2018-Feb-19 19:30N 40°39' W 074°09'1 2.0
2018-Feb-19 18:58N 40°38' W 074°08'0 0.0
2018-Feb-19 18:28N 40°38' W 074°08'0 0.0
2018-Feb-19 17:46N 40°38' W 074°08'0 0.0
2018-Feb-19 16:58N 40°38' W 074°08'0 0.0
2018-Feb-19 16:25N 40°38' W 074°08'0 0.0
2018-Feb-19 15:58N 40°38' W 074°08'0 0.0
2018-Feb-19 15:22N 40°38' W 074°08'0 0.0
2018-Feb-19 14:52N 40°38' W 074°08'0 0.0
2018-Feb-19 14:04N 40°38' W 074°08'0 0.0
2018-Feb-19 13:58N 40°38' W 074°08'0 0.0
2018-Feb-19 13:28N 40°38' W 074°08'0 0.0
2018-Feb-19 12:58N 40°38' W 074°08'0 0.0
2018-Feb-19 12:30N 40°38' W 074°08'2 4.2
2018-Feb-19 12:00N 40°41' W 074°08'0 0.2
2018-Feb-19 11:30N 40°41' W 074°08'1 2.6
2018-Feb-19 11:00N 40°39' W 074°09'2 3.7
2018-Feb-19 10:30N 40°39' W 074°06'1 1.8
2018-Feb-19 09:54N 40°38' W 074°08'0 0.0
2018-Feb-19 09:26N 40°38' W 074°08'0 0.0
2018-Feb-19 08:59N 40°38' W 074°08'0 0.0
2018-Feb-19 08:23N 40°38' W 074°08'0 0.0
2018-Feb-19 07:59N 40°38' W 074°08'0 0.0
2018-Feb-19 07:29N 40°38' W 074°08'0 0.0
2018-Feb-19 06:59N 40°38' W 074°08'0 0.0
2018-Feb-19 06:29N 40°38' W 074°08'0 0.0
2018-Feb-19 05:59N 40°38' W 074°08'0 0.0
2018-Feb-19 05:29N 40°38' W 074°08'2 5.0
2018-Feb-19 05:00N 40°39' W 074°05'510.3
2018-Feb-19 04:30N 40°34' W 074°02'0 0.3
2018-Feb-19 04:00N 40°34' W 074°02'5 9.9
2018-Feb-19 03:30N 40°39' W 074°04'3 5.5
2018-Feb-19 03:00N 40°39' W 074°08'2 3.5
2018-Feb-19 02:30N 40°40' W 074°08'1 2.5
2018-Feb-19 02:00N 40°41' W 074°09'0 0.0
2018-Feb-19 01:30N 40°41' W 074°09'2 4.6
2018-Feb-19 01:00N 40°39' W 074°09'1 1.9
2018-Feb-19 00:28N 40°38' W 074°08'0 0.0
2018-Feb-18 23:58N 40°38' W 074°08'0 0.0
2018-Feb-18 23:28N 40°38' W 074°08'0 0.0
2018-Feb-18 22:58N 40°38' W 074°08'0 0.0
2018-Feb-18 22:22N 40°38' W 074°08'0 0.0
2018-Feb-18 21:58N 40°38' W 074°08'1 1.5
2018-Feb-18 21:28N 40°39' W 074°07'3 6.2
2018-Feb-18 21:00N 40°38' W 074°03'2 3.2
2018-Feb-18 20:30N 40°39' W 074°04'3 4.5
2018-Feb-18 19:55N 40°38' W 074°08'0 0.0
2018-Feb-18 17:01N 40°38' W 074°08'0 0.0
2018-Feb-18 13:13N 40°38' W 074°08'0 0.4
2018-Feb-18 13:00N 40°39' W 074°08'3 5.9
2018-Feb-18 12:30N 40°41' W 074°08'1 1.1
2018-Feb-18 11:59N 40°41' W 074°08'1 2.3
2018-Feb-18 11:30N 40°41' W 074°09'0 0.8
2018-Feb-18 11:00N 40°41' W 074°09'1 1.9
2018-Feb-18 10:30N 40°40' W 074°08'1 2.3
2018-Feb-18 10:00N 40°39' W 074°09'3 5.2
2018-Feb-18 09:30N 40°39' W 074°06'2 3.7
2018-Feb-18 09:01N 40°38' W 074°03'2 4.9
2018-Feb-18 08:31N 40°36' W 074°02'5 9.4
2018-Feb-18 08:00N 40°31' W 074°00'1 1.0
2018-Feb-18 07:30N 40°31' W 073°60'3 5.6
2018-Feb-18 07:00N 40°33' W 074°02'4 8.5
2018-Feb-18 06:30N 40°37' W 074°04'3 5.8
2018-Feb-18 06:01N 40°39' W 074°07'1 0.9
2018-Feb-18 05:13N 40°38' W 074°08'0 0.0
2018-Feb-18 04:55N 40°38' W 074°08'0 0.0
2018-Feb-18 04:25N 40°38' W 074°08'0 0.0
2018-Feb-18 03:49N 40°38' W 074°08'0 0.0
2018-Feb-18 03:28N 40°38' W 074°08'0 0.0
2018-Feb-18 02:49N 40°38' W 074°08'0 0.0
2018-Feb-18 02:19N 40°38' W 074°08'0 0.0
2018-Feb-18 01:55N 40°38' W 074°08'0 0.0
2018-Feb-18 01:25N 40°38' W 074°08'0 0.0
2018-Feb-18 00:49N 40°38' W 074°08'0 0.0
2018-Feb-18 00:22N 40°38' W 074°08'0 0.0
2018-Feb-17 23:46N 40°38' W 074°08'310.3
2018-Feb-17 23:30N 40°39' W 074°04'5 9.7
2018-Feb-17 23:01N 40°42' W 073°59'4 8.5
2018-Feb-17 22:30N 40°46' W 073°57'1 1.1
2018-Feb-17 22:00N 40°46' W 073°57'3 5.6
2018-Feb-17 21:30N 40°43' W 073°58'2 5.0
2018-Feb-17 21:00N 40°41' W 074°00'2 4.4
2018-Feb-17 20:31N 40°40' W 074°03'3 6.2
2018-Feb-17 19:59N 40°39' W 074°07'1 0.2
2018-Feb-17 15:11N 40°39' W 074°08'2 8.3
2018-Feb-17 14:58N 40°39' W 074°05'0 0.1
2018-Feb-17 14:29N 40°39' W 074°05'0 0.0
2018-Feb-17 14:00N 40°39' W 074°06'1 2.6
2018-Feb-17 13:30N 40°39' W 074°07'1 0.8
2018-Feb-17 12:54N 40°38' W 074°08'2 6.3
2018-Feb-17 12:30N 40°41' W 074°09'0 0.3
2018-Feb-17 12:00N 40°41' W 074°09'1 2.2
2018-Feb-17 11:28N 40°40' W 074°09'1 2.6
2018-Feb-17 11:00N 40°39' W 074°09'3 6.6
2018-Feb-17 10:30N 40°39' W 074°05'2 3.8
2018-Feb-17 10:01N 40°38' W 074°03'1 1.7
2018-Feb-17 09:30N 40°38' W 074°04'0 0.0
2018-Feb-17 09:00N 40°38' W 074°04'0 0.0
2018-Feb-17 08:30N 40°38' W 074°04'4 7.4
2018-Feb-17 08:00N 40°39' W 074°09'4 6.8
2018-Feb-17 07:27N 40°36' W 074°12'1 1.2
2018-Feb-17 06:50N 40°35' W 074°13'0 0.0
2018-Feb-17 06:17N 40°35' W 074°13'0 0.0
2018-Feb-17 05:53N 40°35' W 074°13'0 0.0
2018-Feb-17 05:23N 40°35' W 074°13'0 0.2
2018-Feb-17 05:00N 40°35' W 074°13'0 0.0
2018-Feb-17 02:39N 40°35' W 074°12'1 3.8
2018-Feb-17 02:29N 40°35' W 074°13'0 0.1
2018-Feb-17 00:35N 40°34' W 074°13'2 9.7
2018-Feb-17 00:24N 40°36' W 074°12'7 7.9
2018-Feb-16 23:30N 40°40' W 074°04'3 5.9
2018-Feb-16 23:00N 40°41' W 074°01'1 1.8
2018-Feb-16 22:31N 40°41' W 074°02'4 7.7
2018-Feb-16 22:01N 40°39' W 074°06'2 4.6
2018-Feb-16 21:30N 40°41' W 074°08'1 2.7
2018-Feb-16 21:00N 40°42' W 074°09'1 2.9
2018-Feb-16 20:30N 40°41' W 074°08'2 4.3
2018-Feb-16 20:00N 40°38' W 074°08'0 0.0
2018-Feb-16 19:30N 40°38' W 074°08'0 0.0
2018-Feb-16 18:54N 40°38' W 074°08'0 0.0
2018-Feb-16 18:30N 40°38' W 074°08'0 0.0
2018-Feb-16 18:00N 40°38' W 074°08'0 0.0
2018-Feb-16 17:24N 40°38' W 074°08'0 0.0
2018-Feb-16 16:24N 40°38' W 074°08'0 0.0
2018-Feb-16 15:42N 40°38' W 074°08'0 0.0
2018-Feb-16 15:24N 40°38' W 074°08'3 6.5
2018-Feb-16 15:00N 40°39' W 074°05'3 7.0
2018-Feb-16 14:30N 40°41' W 074°01'1 1.1
2018-Feb-16 14:00N 40°41' W 074°01'5 9.2
2018-Feb-16 13:30N 40°39' W 074°07'3 5.9
2018-Feb-16 13:00N 40°41' W 074°08'1 1.2
2018-Feb-16 12:30N 40°42' W 074°09'1 1.4
2018-Feb-16 11:59N 40°41' W 074°08'2 3.6
2018-Feb-16 11:29N 40°40' W 074°09'0 0.0
2018-Feb-16 10:59N 40°40' W 074°09'1 2.4
2018-Feb-16 10:29N 40°39' W 074°08'3 6.2
2018-Feb-16 10:00N 40°39' W 074°04'1 1.2
2018-Feb-16 09:30N 40°39' W 074°04'3 5.6
2018-Feb-16 08:57N 40°38' W 074°08'0 0.0
2018-Feb-16 03:28N 40°38' W 074°08'3 6.1
2018-Feb-16 02:59N 40°39' W 074°04'3 6.9
2018-Feb-16 02:29N 40°36' W 074°01'0 0.2
2018-Feb-16 01:59N 40°36' W 074°02'0 0.1
2018-Feb-16 01:29N 40°36' W 074°02'0 0.0
2018-Feb-16 00:59N 40°36' W 074°02'0 0.1
2018-Feb-16 00:28N 40°36' W 074°02'0 0.0
2018-Feb-15 23:58N 40°36' W 074°02'0 0.0
2018-Feb-15 23:28N 40°36' W 074°02'0 0.0
2018-Feb-15 22:58N 40°36' W 074°02'0 0.1
2018-Feb-15 22:28N 40°36' W 074°02'0 0.1
2018-Feb-15 21:55N 40°36' W 074°02'0 0.3
2018-Feb-15 21:28N 40°36' W 074°01'0 0.1
2018-Feb-15 20:58N 40°36' W 074°01'0 0.0
2018-Feb-15 20:28N 40°36' W 074°01'0 0.0
2018-Feb-15 19:55N 40°36' W 074°01'0 0.0
2018-Feb-15 19:25N 40°36' W 074°01'0 0.1
2018-Feb-15 18:55N 40°36' W 074°01'0 0.0
2018-Feb-15 18:28N 40°36' W 074°01'0 0.0
2018-Feb-15 17:58N 40°36' W 074°01'0 0.1
2018-Feb-15 17:22N 40°36' W 074°01'0 0.1
2018-Feb-15 16:52N 40°36' W 074°01'1 1.6
2018-Feb-15 16:30N 40°36' W 074°02'5 4.0
2018-Feb-15 15:16N 40°38' W 074°08'0 0.0
2018-Feb-15 14:58N 40°38' W 074°08'0 0.0
2018-Feb-15 14:25N 40°38' W 074°08'0 0.0
2018-Feb-15 13:52N 40°38' W 074°08'0 0.0
2018-Feb-15 13:28N 40°38' W 074°08'0 0.0
2018-Feb-15 12:46N 40°38' W 074°08'0 0.0
2018-Feb-15 12:22N 40°38' W 074°08'0 0.0
2018-Feb-15 11:58N 40°38' W 074°08'2 4.1
2018-Feb-15 11:29N 40°39' W 074°10'1 1.8
2018-Feb-15 10:59N 40°38' W 074°11'2 4.1
2018-Feb-15 10:30N 40°39' W 074°09'2 4.0
2018-Feb-15 10:00N 40°39' W 074°06'1 0.1
2018-Feb-15 00:56N 40°39' W 074°08'2 5.1
2018-Feb-15 00:27N 40°41' W 074°08'0 0.3
2018-Feb-14 23:54N 40°41' W 074°08'0 0.1
2018-Feb-14 23:28N 40°41' W 074°08'3 5.1
2018-Feb-14 22:57N 40°38' W 074°08'0 0.0
2018-Feb-14 22:26N 40°39' W 074°08'2 3.5
2018-Feb-14 22:00N 40°40' W 074°09'0 0.6
2018-Feb-14 21:30N 40°40' W 074°09'2 3.3
2018-Feb-14 21:00N 40°39' W 074°07'0 1.0
2018-Feb-14 20:30N 40°39' W 074°07'4 7.1
2018-Feb-14 20:01N 40°40' W 074°03'2 3.6
2018-Feb-14 19:30N 40°39' W 074°05'0 0.1
2018-Feb-14 19:00N 40°39' W 074°05'0 0.3
2018-Feb-14 18:28N 40°39' W 074°05'1 3.0
2018-Feb-14 18:00N 40°38' W 074°03'2 4.8
2018-Feb-14 17:30N 40°39' W 074°06'2 4.5
2018-Feb-14 17:00N 40°39' W 074°04'1 1.7
2018-Feb-14 16:27N 40°40' W 074°03'0 0.1
2018-Feb-14 16:00N 40°40' W 074°03'0 0.1
2018-Feb-14 15:30N 40°40' W 074°03'0 0.2
2018-Feb-14 15:00N 40°40' W 074°03'0 0.1
2018-Feb-14 14:29N 40°40' W 074°03'0 0.0
2018-Feb-14 14:00N 40°40' W 074°03'0 0.0
2018-Feb-14 13:30N 40°40' W 074°03'0 0.0
2018-Feb-14 13:00N 40°40' W 074°03'0 0.0
2018-Feb-14 12:30N 40°40' W 074°03'0 0.2
2018-Feb-14 12:00N 40°40' W 074°03'5 9.9
2018-Feb-14 11:30N 40°39' W 074°09'2 4.4
2018-Feb-14 11:00N 40°39' W 074°06'2 4.1
2018-Feb-14 10:30N 40°39' W 074°03'3 6.5
2018-Feb-14 10:00N 40°38' W 074°08'0 0.0
2018-Feb-14 09:30N 40°38' W 074°08'0 0.0
2018-Feb-14 09:00N 40°38' W 074°08'0 0.0
2018-Feb-14 08:30N 40°38' W 074°08'0 0.0
2018-Feb-14 08:00N 40°38' W 074°08'0 0.0
2018-Feb-14 07:28N 40°38' W 074°08'0 0.0
2018-Feb-14 07:00N 40°38' W 074°08'0 0.0
2018-Feb-14 06:29N 40°38' W 074°08'0 0.0
2018-Feb-14 05:59N 40°38' W 074°08'0 0.0
2018-Feb-14 05:29N 40°38' W 074°08'0 0.0
2018-Feb-14 05:00N 40°38' W 074°08'0 0.0
2018-Feb-14 04:30N 40°38' W 074°08'0 0.0
2018-Feb-14 04:00N 40°38' W 074°08'  
Track history (hours):
 
Tides and Currents Weather Stations Pressure Air Temp Water Temp Dewpoint Dewpoint Depression Visibility Wind Speed Wind Dir Waves Ship Positions

Brendan Turecamo

Owner: Moran Towing Corporation, New Canaan, CT. More information available from US FCC via Universal Licensing System and Coast Guard Vessel Documentation Center.

Last reported at 2018-Feb-24 03:58 UTC. Time now 2018-Feb-24 04:03 UTC.
Position N 40°38' W 074°08'.

Length 33 m; draft 4.7 m.

Type: Tug. MMSI: 366946760.

Date/timePositionNaut miles runAvg speedWind from/ knotsBaromVisibWave heightAir tempDewpointWater temp
2018-Feb-24 03:58N 40°38' W 074°08'0 0.0
2018-Feb-24 03:25N 40°38' W 074°08'0 0.0
2018-Feb-24 02:55N 40°38' W 074°08'0 0.0
2018-Feb-24 02:28N 40°38' W 074°08'0 0.0
2018-Feb-24 01:49N 40°38' W 074°08'0 0.0
2018-Feb-24 01:28N 40°38' W 074°08'0 0.0
2018-Feb-24 00:55N 40°38' W 074°08'0 0.0
2018-Feb-24 00:25N 40°38' W 074°08'0 0.0
2018-Feb-23 23:49N 40°38' W 074°08'0 0.0
2018-Feb-23 22:55N 40°38' W 074°08'0 0.0
2018-Feb-23 22:25N 40°38' W 074°08'0 0.0
2018-Feb-23 21:55N 40°38' W 074°08'0 0.0
2018-Feb-23 21:25N 40°38' W 074°08'0 0.0
2018-Feb-23 20:58N 40°38' W 074°08'0 0.0
2018-Feb-23 20:28N 40°38' W 074°08'0 0.0
2018-Feb-23 19:58N 40°38' W 074°08'0 0.0
2018-Feb-23 19:22N 40°38' W 074°08'0 0.0
2018-Feb-23 18:55N 40°38' W 074°08'0 0.0
2018-Feb-23 18:25N 40°38' W 074°08'0 0.0
2018-Feb-23 18:00N 40°38' W 074°08'3 5.9
2018-Feb-23 17:30N 40°39' W 074°04'4 6.6
2018-Feb-23 16:58N 40°36' W 074°01'0 0.0
2018-Feb-23 16:28N 40°36' W 074°01'0 0.0
2018-Feb-23 15:58N 40°36' W 074°01'0 0.0
2018-Feb-23 15:22N 40°36' W 074°01'0 0.0
2018-Feb-23 14:58N 40°36' W 074°01'0 0.0
2018-Feb-23 14:28N 40°36' W 074°01'0 0.0
2018-Feb-23 13:58N 40°36' W 074°01'0 0.0
2018-Feb-23 13:28N 40°36' W 074°01'0 0.0
2018-Feb-23 12:58N 40°36' W 074°01'0 0.0
2018-Feb-23 12:28N 40°36' W 074°01'0 0.0
2018-Feb-23 11:58N 40°36' W 074°01'0 0.1
2018-Feb-23 11:30N 40°36' W 074°01'3 6.0
2018-Feb-23 11:00N 40°38' W 074°04'3 4.0
2018-Feb-23 10:14N 40°38' W 074°08'0 0.0
2018-Feb-23 08:47N 40°38' W 074°08'0 0.0
2018-Feb-23 08:29N 40°38' W 074°08'0 0.0
2018-Feb-23 07:53N 40°38' W 074°08'0 0.0
2018-Feb-23 07:29N 40°38' W 074°08'0 0.0
2018-Feb-23 06:59N 40°38' W 074°08'0 0.0
2018-Feb-23 06:29N 40°38' W 074°08'0 0.3
2018-Feb-23 05:58N 40°38' W 074°08'0 0.3
2018-Feb-23 05:30N 40°38' W 074°08'0 0.0
2018-Feb-23 05:00N 40°38' W 074°08'0 0.0
2018-Feb-23 04:30N 40°38' W 074°08'0 0.0
2018-Feb-23 04:00N 40°38' W 074°08'0 0.0
2018-Feb-23 03:30N 40°38' W 074°08'0 0.0
2018-Feb-23 03:00N 40°38' W 074°08'0 0.0
2018-Feb-23 02:30N 40°38' W 074°08'0 0.8
2018-Feb-23 01:59N 40°39' W 074°08'3 6.7
2018-Feb-23 01:29N 40°42' W 074°09'1 1.1
2018-Feb-23 01:00N 40°42' W 074°08'2 4.1
2018-Feb-23 00:30N 40°39' W 074°09'2 3.8
2018-Feb-23 00:00N 40°39' W 074°06'3 6.4
2018-Feb-22 23:30N 40°40' W 074°03'2 3.2
2018-Feb-22 23:00N 40°41' W 074°01'2 4.5
2018-Feb-22 22:30N 40°40' W 074°03'4 1.7
2018-Feb-22 20:13N 40°38' W 074°08'0 0.0
2018-Feb-22 19:49N 40°38' W 074°08'0 0.0
2018-Feb-22 19:19N 40°38' W 074°08'0 0.0
2018-Feb-22 18:55N 40°38' W 074°08'2 4.7
2018-Feb-22 18:29N 40°40' W 074°08'2 3.1
2018-Feb-22 18:00N 40°42' W 074°09'1 2.7
2018-Feb-22 17:30N 40°41' W 074°08'2 4.2
2018-Feb-22 17:00N 40°39' W 074°07'4 7.3
2018-Feb-22 16:30N 40°40' W 074°03'2 3.4
2018-Feb-22 16:00N 40°41' W 074°01'3 5.1
2018-Feb-22 15:31N 40°40' W 074°03'4 6.5
2018-Feb-22 14:57N 40°38' W 074°08'0 0.0
2018-Feb-22 14:27N 40°38' W 074°08'0 0.0
2018-Feb-22 13:57N 40°38' W 074°08'0 0.0
2018-Feb-22 13:03N 40°38' W 074°08'0 0.0
2018-Feb-22 12:41N 40°38' W 074°08'0 0.7
2018-Feb-22 12:30N 40°39' W 074°08'4 8.1
2018-Feb-22 12:00N 40°37' W 074°03'4 9.0
2018-Feb-22 11:30N 40°33' W 074°01'5 9.5
2018-Feb-22 10:59N 40°30' W 073°56'4 8.5
2018-Feb-22 10:30N 40°32' W 074°01'714.1
2018-Feb-22 10:00N 40°38' W 074°04'4 7.4
2018-Feb-22 09:30N 40°39' W 074°09'2 3.9
2018-Feb-22 08:59N 40°41' W 074°08'0 0.1
2018-Feb-22 08:30N 40°41' W 074°08'2 4.0
2018-Feb-22 08:00N 40°39' W 074°09'1 1.0
2018-Feb-22 07:27N 40°38' W 074°08'0 0.0
2018-Feb-22 06:45N 40°38' W 074°08'0 0.0
2018-Feb-22 06:21N 40°38' W 074°08'0 0.0
2018-Feb-22 05:57N 40°38' W 074°08'0 0.0
2018-Feb-22 05:27N 40°38' W 074°08'0 0.0
2018-Feb-22 04:57N 40°38' W 074°08'2 4.0
2018-Feb-22 04:30N 40°39' W 074°06'0 0.2
2018-Feb-22 04:00N 40°39' W 074°05'1 2.6
2018-Feb-22 03:30N 40°40' W 074°04'0 0.0
2018-Feb-22 03:01N 40°40' W 074°04'1 1.5
2018-Feb-22 02:30N 40°40' W 074°05'0 0.4
2018-Feb-22 02:01N 40°40' W 074°05'2 4.5
2018-Feb-22 01:30N 40°39' W 074°03'2 3.7
2018-Feb-22 01:01N 40°40' W 074°05'0 0.8
2018-Feb-22 00:30N 40°40' W 074°04'3 5.9
2018-Feb-22 00:00N 40°41' W 074°01'2 4.3
2018-Feb-21 23:30N 40°40' W 074°03'3 6.6
2018-Feb-21 23:00N 40°39' W 074°07'3 6.3
2018-Feb-21 22:29N 40°42' W 074°09'0 0.6
2018-Feb-21 22:00N 40°42' W 074°08'3 5.6
2018-Feb-21 21:28N 40°39' W 074°07'1 1.7
2018-Feb-21 21:00N 40°39' W 074°08'1 2.9
2018-Feb-21 20:30N 40°40' W 074°08'0 0.3
2018-Feb-21 19:59N 40°40' W 074°09'1 3.1
2018-Feb-21 19:30N 40°39' W 074°09'1 1.4
2018-Feb-21 19:00N 40°38' W 074°08'0 0.0
2018-Feb-21 18:30N 40°38' W 074°08'0 0.0
2018-Feb-21 17:05N 40°38' W 074°08'0 0.0
2018-Feb-21 16:41N 40°38' W 074°08'0 0.0
2018-Feb-21 16:28N 40°38' W 074°08'3 6.2
2018-Feb-21 16:00N 40°41' W 074°08'0 0.1
2018-Feb-21 15:30N 40°41' W 074°08'1 1.7
2018-Feb-21 15:00N 40°40' W 074°08'2 3.6
2018-Feb-21 14:29N 40°39' W 074°07'3 6.6
2018-Feb-21 14:00N 40°38' W 074°03'3 5.7
2018-Feb-21 13:30N 40°39' W 074°07'1 0.6
2018-Feb-21 11:51N 40°38' W 074°08'3 7.9
2018-Feb-21 11:30N 40°39' W 074°04'4 7.7
2018-Feb-21 11:01N 40°42' W 074°00'1 1.1
2018-Feb-21 10:30N 40°41' W 074°01'0 0.3
2018-Feb-21 10:01N 40°41' W 074°01'0 0.7
2018-Feb-21 09:30N 40°41' W 074°00'0 0.0
2018-Feb-21 09:00N 40°41' W 074°00'0 0.0
2018-Feb-21 08:30N 40°41' W 074°00'0 0.6
2018-Feb-21 08:00N 40°41' W 074°01'3 6.1
2018-Feb-21 07:30N 40°40' W 074°04'3 5.8
2018-Feb-21 07:00N 40°38' W 074°08'0 0.0
2018-Feb-21 06:29N 40°38' W 074°08'0 0.0
2018-Feb-21 05:59N 40°38' W 074°08'0 0.0
2018-Feb-21 05:29N 40°38' W 074°08'0 0.0
2018-Feb-21 04:59N 40°38' W 074°08'0 0.0
2018-Feb-21 04:29N 40°38' W 074°08'0 0.0
2018-Feb-21 03:59N 40°38' W 074°08'0 0.0
2018-Feb-21 03:29N 40°38' W 074°08'0 0.0
2018-Feb-21 02:59N 40°38' W 074°08'1 2.3
2018-Feb-21 02:30N 40°39' W 074°09'3 0.2
2018-Feb-20 12:07N 40°36' W 074°12'0 0.0
2018-Feb-20 11:43N 40°36' W 074°12'0 0.0
2018-Feb-20 11:25N 40°36' W 074°12'0 0.0
2018-Feb-20 11:00N 40°36' W 074°12'1 1.0
2018-Feb-20 10:27N 40°37' W 074°12'4 7.8
2018-Feb-20 09:59N 40°39' W 074°08'0 0.8
2018-Feb-20 09:30N 40°38' W 074°08'0 0.0
2018-Feb-20 09:00N 40°38' W 074°08'0 0.0
2018-Feb-20 08:30N 40°38' W 074°08'0 0.0
2018-Feb-20 08:00N 40°38' W 074°08'0 0.0
2018-Feb-20 07:30N 40°38' W 074°08'0 0.0
2018-Feb-20 07:00N 40°38' W 074°08'0 0.0
2018-Feb-20 05:30N 40°38' W 074°08'0 0.0
2018-Feb-20 05:00N 40°38' W 074°08'0 0.0
2018-Feb-20 04:30N 40°38' W 074°08'0 0.0
2018-Feb-20 04:00N 40°38' W 074°08'0 0.0
2018-Feb-20 03:30N 40°38' W 074°08'0 0.0
2018-Feb-20 03:00N 40°38' W 074°08'0 0.0
2018-Feb-20 02:30N 40°38' W 074°08'0 0.0
2018-Feb-20 02:00N 40°38' W 074°08'0 0.0
2018-Feb-20 01:18N 40°38' W 074°08'0 0.0
2018-Feb-20 01:00N 40°38' W 074°08'0 0.6
2018-Feb-20 00:29N 40°39' W 074°08'1 3.0
2018-Feb-20 00:00N 40°40' W 074°09'0 0.9
2018-Feb-19 23:30N 40°39' W 074°09'2 3.0
2018-Feb-19 22:57N 40°39' W 074°07'2 5.6
2018-Feb-19 22:30N 40°39' W 074°03'2 3.4
2018-Feb-19 22:00N 40°37' W 074°03'4 8.6
2018-Feb-19 21:30N 40°39' W 074°08'2 3.6
2018-Feb-19 21:00N 40°40' W 074°08'1 1.9
2018-Feb-19 20:30N 40°41' W 074°09'0 0.2
2018-Feb-19 20:00N 40°41' W 074°09'2 3.4
2018-Feb-19 19:30N 40°39' W 074°09'1 2.0
2018-Feb-19 18:58N 40°38' W 074°08'0 0.0
2018-Feb-19 18:28N 40°38' W 074°08'0 0.0
2018-Feb-19 17:46N 40°38' W 074°08'0 0.0
2018-Feb-19 16:58N 40°38' W 074°08'0 0.0
2018-Feb-19 16:25N 40°38' W 074°08'0 0.0
2018-Feb-19 15:58N 40°38' W 074°08'0 0.0
2018-Feb-19 15:22N 40°38' W 074°08'0 0.0
2018-Feb-19 14:52N 40°38' W 074°08'0 0.0
2018-Feb-19 14:04N 40°38' W 074°08'0 0.0
2018-Feb-19 13:58N 40°38' W 074°08'0 0.0
2018-Feb-19 13:28N 40°38' W 074°08'0 0.0
2018-Feb-19 12:58N 40°38' W 074°08'0 0.0
2018-Feb-19 12:30N 40°38' W 074°08'2 4.2
2018-Feb-19 12:00N 40°41' W 074°08'0 0.2
2018-Feb-19 11:30N 40°41' W 074°08'1 2.6
2018-Feb-19 11:00N 40°39' W 074°09'2 3.7
2018-Feb-19 10:30N 40°39' W 074°06'1 1.8
2018-Feb-19 09:54N 40°38' W 074°08'0 0.0
2018-Feb-19 09:26N 40°38' W 074°08'0 0.0
2018-Feb-19 08:59N 40°38' W 074°08'0 0.0
2018-Feb-19 08:23N 40°38' W 074°08'0 0.0
2018-Feb-19 07:59N 40°38' W 074°08'0 0.0
2018-Feb-19 07:29N 40°38' W 074°08'0 0.0
2018-Feb-19 06:59N 40°38' W 074°08'0 0.0
2018-Feb-19 06:29N 40°38' W 074°08'0 0.0
2018-Feb-19 05:59N 40°38' W 074°08'0 0.0
2018-Feb-19 05:29N 40°38' W 074°08'2 5.0
2018-Feb-19 05:00N 40°39' W 074°05'510.3
2018-Feb-19 04:30N 40°34' W 074°02'0 0.3
2018-Feb-19 04:00N 40°34' W 074°02'5 9.9
2018-Feb-19 03:30N 40°39' W 074°04'3 5.5
2018-Feb-19 03:00N 40°39' W 074°08'2 3.5
2018-Feb-19 02:30N 40°40' W 074°08'1 2.5
2018-Feb-19 02:00N 40°41' W 074°09'0 0.0
2018-Feb-19 01:30N 40°41' W 074°09'2 4.6
2018-Feb-19 01:00N 40°39' W 074°09'1 1.9
2018-Feb-19 00:28N 40°38' W 074°08'0 0.0
2018-Feb-18 23:58N 40°38' W 074°08'0 0.0
2018-Feb-18 23:28N 40°38' W 074°08'0 0.0
2018-Feb-18 22:58N 40°38' W 074°08'0 0.0
2018-Feb-18 22:22N 40°38' W 074°08'0 0.0
2018-Feb-18 21:58N 40°38' W 074°08'1 1.5
2018-Feb-18 21:28N 40°39' W 074°07'3 6.2
2018-Feb-18 21:00N 40°38' W 074°03'2 3.2
2018-Feb-18 20:30N 40°39' W 074°04'3 4.5
2018-Feb-18 19:55N 40°38' W 074°08'0 0.0
2018-Feb-18 17:01N 40°38' W 074°08'0 0.0
2018-Feb-18 13:13N 40°38' W 074°08'0 0.4
2018-Feb-18 13:00N 40°39' W 074°08'3 5.9
2018-Feb-18 12:30N 40°41' W 074°08'1 1.1
2018-Feb-18 11:59N 40°41' W 074°08'1 2.3
2018-Feb-18 11:30N 40°41' W 074°09'0 0.8
2018-Feb-18 11:00N 40°41' W 074°09'1 1.9
2018-Feb-18 10:30N 40°40' W 074°08'1 2.3
2018-Feb-18 10:00N 40°39' W 074°09'3 5.2
2018-Feb-18 09:30N 40°39' W 074°06'2 3.7
2018-Feb-18 09:01N 40°38' W 074°03'2 4.9
2018-Feb-18 08:31N 40°36' W 074°02'5 9.4
2018-Feb-18 08:00N 40°31' W 074°00'1 1.0
2018-Feb-18 07:30N 40°31' W 073°60'3 5.6
2018-Feb-18 07:00N 40°33' W 074°02'4 8.5
2018-Feb-18 06:30N 40°37' W 074°04'3 5.8
2018-Feb-18 06:01N 40°39' W 074°07'1 0.9
2018-Feb-18 05:13N 40°38' W 074°08'0 0.0
2018-Feb-18 04:55N 40°38' W 074°08'0 0.0
2018-Feb-18 04:25N 40°38' W 074°08'0 0.0
2018-Feb-18 03:49N 40°38' W 074°08'0 0.0
2018-Feb-18 03:28N 40°38' W 074°08'0 0.0
2018-Feb-18 02:49N 40°38' W 074°08'0 0.0
2018-Feb-18 02:19N 40°38' W 074°08'0 0.0
2018-Feb-18 01:55N 40°38' W 074°08'0 0.0
2018-Feb-18 01:25N 40°38' W 074°08'0 0.0
2018-Feb-18 00:49N 40°38' W 074°08'0 0.0
2018-Feb-18 00:22N 40°38' W 074°08'0 0.0
2018-Feb-17 23:46N 40°38' W 074°08'310.3
2018-Feb-17 23:30N 40°39' W 074°04'5 9.7
2018-Feb-17 23:01N 40°42' W 073°59'4 8.5
2018-Feb-17 22:30N 40°46' W 073°57'1 1.1
2018-Feb-17 22:00N 40°46' W 073°57'3 5.6
2018-Feb-17 21:30N 40°43' W 073°58'2 5.0
2018-Feb-17 21:00N 40°41' W 074°00'2 4.4
2018-Feb-17 20:31N 40°40' W 074°03'3 6.2
2018-Feb-17 19:59N 40°39' W 074°07'1 0.2
2018-Feb-17 15:11N 40°39' W 074°08'2 8.3
2018-Feb-17 14:58N 40°39' W 074°05'0 0.1
2018-Feb-17 14:29N 40°39' W 074°05'0 0.0
2018-Feb-17 14:00N 40°39' W 074°06'1 2.6
2018-Feb-17 13:30N 40°39' W 074°07'1 0.8
2018-Feb-17 12:54N 40°38' W 074°08'2 6.3
2018-Feb-17 12:30N 40°41' W 074°09'0 0.3
2018-Feb-17 12:00N 40°41' W 074°09'1 2.2
2018-Feb-17 11:28N 40°40' W 074°09'1 2.6
2018-Feb-17 11:00N 40°39' W 074°09'3 6.6
2018-Feb-17 10:30N 40°39' W 074°05'2 3.8
2018-Feb-17 10:01N 40°38' W 074°03'1 1.7
2018-Feb-17 09:30N 40°38' W 074°04'0 0.0
2018-Feb-17 09:00N 40°38' W 074°04'0 0.0
2018-Feb-17 08:30N 40°38' W 074°04'4 7.4
2018-Feb-17 08:00N 40°39' W 074°09'4 6.8
2018-Feb-17 07:27N 40°36' W 074°12'1 1.2
2018-Feb-17 06:50N 40°35' W 074°13'0 0.0
2018-Feb-17 06:17N 40°35' W 074°13'0 0.0
2018-Feb-17 05:53N 40°35' W 074°13'0 0.0
2018-Feb-17 05:23N 40°35' W 074°13'0 0.2
2018-Feb-17 05:00N 40°35' W 074°13'0 0.0
2018-Feb-17 02:39N 40°35' W 074°12'1 3.8
2018-Feb-17 02:29N 40°35' W 074°13'0 0.1
2018-Feb-17 00:35N 40°34' W 074°13'2 9.7
2018-Feb-17 00:24N 40°36' W 074°12'7 7.9
2018-Feb-16 23:30N 40°40' W 074°04'3 5.9
2018-Feb-16 23:00N 40°41' W 074°01'1 1.8
2018-Feb-16 22:31N 40°41' W 074°02'4 7.7
2018-Feb-16 22:01N 40°39' W 074°06'2 4.6
2018-Feb-16 21:30N 40°41' W 074°08'1 2.7
2018-Feb-16 21:00N 40°42' W 074°09'1 2.9
2018-Feb-16 20:30N 40°41' W 074°08'2 4.3
2018-Feb-16 20:00N 40°38' W 074°08'0 0.0
2018-Feb-16 19:30N 40°38' W 074°08'0 0.0
2018-Feb-16 18:54N 40°38' W 074°08'0 0.0
2018-Feb-16 18:30N 40°38' W 074°08'0 0.0
2018-Feb-16 18:00N 40°38' W 074°08'0 0.0
2018-Feb-16 17:24N 40°38' W 074°08'0 0.0
2018-Feb-16 16:24N 40°38' W 074°08'0 0.0
2018-Feb-16 15:42N 40°38' W 074°08'0 0.0
2018-Feb-16 15:24N 40°38' W 074°08'3 6.5
2018-Feb-16 15:00N 40°39' W 074°05'3 7.0
2018-Feb-16 14:30N 40°41' W 074°01'1 1.1
2018-Feb-16 14:00N 40°41' W 074°01'5 9.2
2018-Feb-16 13:30N 40°39' W 074°07'3 5.9
2018-Feb-16 13:00N 40°41' W 074°08'1 1.2
2018-Feb-16 12:30N 40°42' W 074°09'1 1.4
2018-Feb-16 11:59N 40°41' W 074°08'2 3.6
2018-Feb-16 11:29N 40°40' W 074°09'0 0.0
2018-Feb-16 10:59N 40°40' W 074°09'1 2.4
2018-Feb-16 10:29N 40°39' W 074°08'3 6.2
2018-Feb-16 10:00N 40°39' W 074°04'1 1.2
2018-Feb-16 09:30N 40°39' W 074°04'3 5.6
2018-Feb-16 08:57N 40°38' W 074°08'0 0.0
2018-Feb-16 03:28N 40°38' W 074°08'3 6.1
2018-Feb-16 02:59N 40°39' W 074°04'3 6.9
2018-Feb-16 02:29N 40°36' W 074°01'0 0.2
2018-Feb-16 01:59N 40°36' W 074°02'0 0.1
2018-Feb-16 01:29N 40°36' W 074°02'0 0.0
2018-Feb-16 00:59N 40°36' W 074°02'0 0.1
2018-Feb-16 00:28N 40°36' W 074°02'0 0.0
2018-Feb-15 23:58N 40°36' W 074°02'0 0.0
2018-Feb-15 23:28N 40°36' W 074°02'0 0.0
2018-Feb-15 22:58N 40°36' W 074°02'0 0.1
2018-Feb-15 22:28N 40°36' W 074°02'0 0.1
2018-Feb-15 21:55N 40°36' W 074°02'0 0.3
2018-Feb-15 21:28N 40°36' W 074°01'0 0.1
2018-Feb-15 20:58N 40°36' W 074°01'0 0.0
2018-Feb-15 20:28N 40°36' W 074°01'0 0.0
2018-Feb-15 19:55N 40°36' W 074°01'0 0.0
2018-Feb-15 19:25N 40°36' W 074°01'0 0.1
2018-Feb-15 18:55N 40°36' W 074°01'0 0.0
2018-Feb-15 18:28N 40°36' W 074°01'0 0.0
2018-Feb-15 17:58N 40°36' W 074°01'0 0.1
2018-Feb-15 17:22N 40°36' W 074°01'0 0.1
2018-Feb-15 16:52N 40°36' W 074°01'1 1.6
2018-Feb-15 16:30N 40°36' W 074°02'5 4.0
2018-Feb-15 15:16N 40°38' W 074°08'0 0.0
2018-Feb-15 14:58N 40°38' W 074°08'0 0.0
2018-Feb-15 14:25N 40°38' W 074°08'0 0.0
2018-Feb-15 13:52N 40°38' W 074°08'0 0.0
2018-Feb-15 13:28N 40°38' W 074°08'0 0.0
2018-Feb-15 12:46N 40°38' W 074°08'0 0.0
2018-Feb-15 12:22N 40°38' W 074°08'0 0.0
2018-Feb-15 11:58N 40°38' W 074°08'2 4.1
2018-Feb-15 11:29N 40°39' W 074°10'1 1.8
2018-Feb-15 10:59N 40°38' W 074°11'2 4.1
2018-Feb-15 10:30N 40°39' W 074°09'2 4.0
2018-Feb-15 10:00N 40°39' W 074°06'1 0.1
2018-Feb-15 00:56N 40°39' W 074°08'2 5.1
2018-Feb-15 00:27N 40°41' W 074°08'0 0.3
2018-Feb-14 23:54N 40°41' W 074°08'0 0.1
2018-Feb-14 23:28N 40°41' W 074°08'3 5.1
2018-Feb-14 22:57N 40°38' W 074°08'0 0.0
2018-Feb-14 22:26N 40°39' W 074°08'2 3.5
2018-Feb-14 22:00N 40°40' W 074°09'0 0.6
2018-Feb-14 21:30N 40°40' W 074°09'2 3.3
2018-Feb-14 21:00N 40°39' W 074°07'0 1.0
2018-Feb-14 20:30N 40°39' W 074°07'4 7.1
2018-Feb-14 20:01N 40°40' W 074°03'2 3.6
2018-Feb-14 19:30N 40°39' W 074°05'0 0.1
2018-Feb-14 19:00N 40°39' W 074°05'0 0.3
2018-Feb-14 18:28N 40°39' W 074°05'1 3.0
2018-Feb-14 18:00N 40°38' W 074°03'2 4.8
2018-Feb-14 17:30N 40°39' W 074°06'2 4.5
2018-Feb-14 17:00N 40°39' W 074°04'1 1.7
2018-Feb-14 16:27N 40°40' W 074°03'0 0.1
2018-Feb-14 16:00N 40°40' W 074°03'0 0.1
2018-Feb-14 15:30N 40°40' W 074°03'0 0.2
2018-Feb-14 15:00N 40°40' W 074°03'0 0.1
2018-Feb-14 14:29N 40°40' W 074°03'0 0.0
2018-Feb-14 14:00N 40°40' W 074°03'0 0.0
2018-Feb-14 13:30N 40°40' W 074°03'0 0.0
2018-Feb-14 13:00N 40°40' W 074°03'0 0.0
2018-Feb-14 12:30N 40°40' W 074°03'0 0.2
2018-Feb-14 12:00N 40°40' W 074°03'5 9.9
2018-Feb-14 11:30N 40°39' W 074°09'2 4.4
2018-Feb-14 11:00N 40°39' W 074°06'2 4.1
2018-Feb-14 10:30N 40°39' W 074°03'3 6.5
2018-Feb-14 10:00N 40°38' W 074°08'0 0.0
2018-Feb-14 09:30N 40°38' W 074°08'0 0.0
2018-Feb-14 09:00N 40°38' W 074°08'0 0.0
2018-Feb-14 08:30N 40°38' W 074°08'0 0.0
2018-Feb-14 08:00N 40°38' W 074°08'0 0.0
2018-Feb-14 07:28N 40°38' W 074°08'0 0.0
2018-Feb-14 07:00N 40°38' W 074°08'0 0.0
2018-Feb-14 06:29N 40°38' W 074°08'0 0.0
2018-Feb-14 05:59N 40°38' W 074°08'0 0.0
2018-Feb-14 05:29N 40°38' W 074°08'0 0.0
2018-Feb-14 05:00N 40°38' W 074°08'0 0.0
2018-Feb-14 04:30N 40°38' W 074°08'0 0.0
2018-Feb-14 04:00N 40°38' W 074°08'  

Dump ship's entire track history